createdAt,value
2016-08-20T00:00:10.049Z,0
2016-08-20T00:00:34.160Z,0
2016-08-20T00:00:58.348Z,0
2016-08-20T00:01:22.476Z,0
2016-08-20T00:01:46.618Z,0
2016-08-20T00:02:10.763Z,0
2016-08-20T00:02:34.886Z,0
2016-08-20T00:02:59.038Z,0
2016-08-20T00:03:23.152Z,0
2016-08-20T00:03:47.286Z,0
2016-08-20T00:04:11.408Z,0
2016-08-20T00:04:35.501Z,0
2016-08-20T00:04:59.614Z,0
2016-08-20T00:05:23.757Z,0
2016-08-20T00:05:47.875Z,0
2016-08-20T00:06:12.017Z,0
2016-08-20T00:06:36.188Z,0
2016-08-20T00:07:00.295Z,0
2016-08-20T00:07:24.446Z,0
2016-08-20T00:07:48.559Z,0
2016-08-20T00:08:12.650Z,0
2016-08-20T00:08:36.917Z,0
2016-08-20T00:09:01.043Z,0
2016-08-20T00:09:25.189Z,0
2016-08-20T00:09:49.292Z,0
2016-08-20T00:10:13.468Z,0
2016-08-20T00:10:37.605Z,0
2016-08-20T00:11:01.780Z,0
2016-08-20T00:11:26.006Z,0
2016-08-20T00:11:50.133Z,0
2016-08-20T00:12:14.266Z,0
2016-08-20T00:12:38.429Z,0
2016-08-20T00:13:02.733Z,0
2016-08-20T00:13:26.845Z,0
2016-08-20T00:13:51.021Z,0
2016-08-20T00:14:15.188Z,0
2016-08-20T00:14:39.332Z,0
2016-08-20T00:15:03.442Z,0
2016-08-20T00:15:27.571Z,0
2016-08-20T00:15:51.719Z,0
2016-08-20T00:16:15.910Z,0
2016-08-20T00:16:40.039Z,0
2016-08-20T00:17:04.141Z,0
2016-08-20T00:17:28.298Z,0
2016-08-20T00:17:52.412Z,0
2016-08-20T00:18:16.527Z,0
2016-08-20T00:18:40.633Z,0
2016-08-20T00:19:04.752Z,0
2016-08-20T00:19:28.845Z,0
2016-08-20T00:19:52.972Z,0
2016-08-20T00:20:17.087Z,0
2016-08-20T00:20:41.225Z,0
2016-08-20T00:21:05.351Z,0
2016-08-20T00:21:29.591Z,0
2016-08-20T00:21:53.709Z,0
2016-08-20T00:22:17.838Z,0
2016-08-20T00:22:41.955Z,0
2016-08-20T00:23:06.060Z,0
2016-08-20T00:23:30.140Z,0
2016-08-20T00:23:54.250Z,0
2016-08-20T00:24:18.350Z,0
2016-08-20T00:24:42.474Z,0
2016-08-20T00:25:06.598Z,0
2016-08-20T00:25:30.714Z,0
2016-08-20T00:25:54.830Z,0
2016-08-20T00:26:18.999Z,0
2016-08-20T00:26:43.136Z,0
2016-08-20T00:27:07.322Z,0
2016-08-20T00:27:31.454Z,0
2016-08-20T00:27:55.556Z,0
2016-08-20T00:28:19.676Z,0
2016-08-20T00:28:43.811Z,0
2016-08-20T00:29:07.931Z,0
2016-08-20T00:29:32.089Z,0
2016-08-20T00:29:56.187Z,0
2016-08-20T00:30:20.333Z,0
2016-08-20T00:30:44.453Z,0
2016-08-20T00:31:08.573Z,0
2016-08-20T00:31:32.720Z,0
2016-08-20T00:31:56.854Z,0
2016-08-20T00:32:20.968Z,0
2016-08-20T00:32:45.083Z,0
2016-08-20T00:33:09.201Z,0
2016-08-20T00:33:33.334Z,0
2016-08-20T00:33:57.442Z,0
2016-08-20T00:34:21.559Z,0
2016-08-20T00:34:45.700Z,0
2016-08-20T00:35:09.865Z,0
2016-08-20T00:35:33.966Z,0
2016-08-20T00:35:58.169Z,0
2016-08-20T00:36:22.279Z,0
2016-08-20T00:36:46.401Z,0
2016-08-20T00:37:10.520Z,0
2016-08-20T00:37:34.715Z,0
2016-08-20T00:37:58.898Z,0
2016-08-20T00:38:23.123Z,0
2016-08-20T00:38:47.291Z,0
2016-08-20T00:39:11.439Z,0
2016-08-20T00:39:35.540Z,0
2016-08-20T00:39:59.701Z,0
2016-08-20T00:40:23.833Z,0
2016-08-20T00:40:48.043Z,0
2016-08-20T00:41:12.129Z,0
2016-08-20T00:41:36.287Z,0
2016-08-20T00:42:00.464Z,0
2016-08-20T00:42:24.577Z,0
2016-08-20T00:42:48.702Z,0
2016-08-20T00:43:12.816Z,0
2016-08-20T00:43:36.954Z,0
2016-08-20T00:44:01.076Z,0
2016-08-20T00:44:25.190Z,0
2016-08-20T00:44:49.329Z,0
2016-08-20T00:45:13.435Z,0
2016-08-20T00:45:37.545Z,0
2016-08-20T00:46:01.660Z,0
2016-08-20T00:46:25.775Z,0
2016-08-20T00:46:49.881Z,0
2016-08-20T00:47:13.992Z,0
2016-08-20T00:47:38.103Z,0
2016-08-20T00:48:02.205Z,0
2016-08-20T00:48:26.297Z,0
2016-08-20T00:48:50.427Z,0
2016-08-20T00:49:14.540Z,0
2016-08-20T00:49:38.639Z,0
2016-08-20T00:50:02.757Z,0
2016-08-20T00:50:26.893Z,0
2016-08-20T00:50:50.995Z,0
2016-08-20T00:51:15.099Z,0
2016-08-20T00:51:39.217Z,0
2016-08-20T00:52:03.352Z,0
2016-08-20T00:52:27.470Z,0
2016-08-20T00:52:51.557Z,0
2016-08-20T00:53:15.667Z,0
2016-08-20T00:53:39.800Z,0
2016-08-20T00:54:03.943Z,0
2016-08-20T00:54:28.047Z,0
2016-08-20T00:54:52.157Z,0
2016-08-20T00:55:16.266Z,0
2016-08-20T00:55:40.409Z,0
2016-08-20T00:56:04.314Z,0
2016-08-20T00:56:28.406Z,0
2016-08-20T00:56:52.563Z,0
2016-08-20T00:57:16.689Z,0
2016-08-20T00:57:40.813Z,0
2016-08-20T00:58:04.915Z,0
2016-08-20T00:58:29.025Z,0
2016-08-20T00:58:53.139Z,0
2016-08-20T00:59:17.258Z,0
2016-08-20T00:59:41.348Z,0
2016-08-20T01:00:05.458Z,0
2016-08-20T01:00:29.570Z,0
2016-08-20T01:00:53.734Z,0
2016-08-20T01:01:17.912Z,0
2016-08-20T01:01:42.054Z,0
2016-08-20T01:02:06.155Z,0
2016-08-20T01:02:30.280Z,0
2016-08-20T01:02:54.386Z,0
2016-08-20T01:03:18.559Z,0
2016-08-20T01:03:42.729Z,0
2016-08-20T01:04:06.875Z,0
2016-08-20T01:04:30.982Z,0
2016-08-20T01:04:55.097Z,0
2016-08-20T01:05:19.202Z,0
2016-08-20T01:05:43.335Z,0
2016-08-20T01:06:07.481Z,0
2016-08-20T01:06:31.612Z,0
2016-08-20T01:06:55.764Z,0
2016-08-20T01:07:19.940Z,0
2016-08-20T01:07:44.122Z,0
2016-08-20T01:08:08.239Z,0
2016-08-20T01:08:32.382Z,0
2016-08-20T01:08:56.525Z,0
2016-08-20T01:09:20.628Z,0
2016-08-20T01:09:44.723Z,0
2016-08-20T01:10:08.850Z,0
2016-08-20T01:10:32.962Z,0
2016-08-20T01:10:57.071Z,0
2016-08-20T01:11:21.150Z,0
2016-08-20T01:11:45.248Z,0
2016-08-20T01:12:09.361Z,0
2016-08-20T01:12:33.606Z,0
2016-08-20T01:12:57.711Z,0
2016-08-20T01:13:21.813Z,0
2016-08-20T01:13:45.964Z,0
2016-08-20T01:14:10.107Z,0
2016-08-20T01:14:34.221Z,0
2016-08-20T01:14:58.343Z,0
2016-08-20T01:15:22.455Z,0
2016-08-20T01:15:46.562Z,0
2016-08-20T01:16:10.672Z,0
2016-08-20T01:16:34.785Z,0
2016-08-20T01:16:59.000Z,0
2016-08-20T01:17:23.141Z,0
2016-08-20T01:17:47.252Z,0
2016-08-20T01:18:11.788Z,0
2016-08-20T01:18:35.932Z,0
2016-08-20T01:19:00.060Z,0
2016-08-20T01:19:24.160Z,0
2016-08-20T01:19:48.281Z,0
2016-08-20T01:20:12.411Z,0
2016-08-20T01:20:37.497Z,0
2016-08-20T01:21:01.621Z,0
2016-08-20T01:21:25.733Z,0
2016-08-20T01:21:49.860Z,0
2016-08-20T01:22:13.984Z,0
2016-08-20T01:22:38.107Z,0
2016-08-20T01:23:02.219Z,0
2016-08-20T01:23:26.331Z,0
2016-08-20T01:23:50.462Z,0
2016-08-20T01:24:14.617Z,0
2016-08-20T01:24:38.719Z,0
2016-08-20T01:25:02.818Z,0
2016-08-20T01:25:26.981Z,0
2016-08-20T01:25:51.122Z,0
2016-08-20T01:26:15.243Z,0
2016-08-20T01:26:39.367Z,0
2016-08-20T01:27:03.551Z,0
2016-08-20T01:27:27.647Z,0
2016-08-20T01:27:51.747Z,0
2016-08-20T01:28:15.865Z,0
2016-08-20T01:28:40.025Z,0
2016-08-20T01:29:04.145Z,0
2016-08-20T01:29:28.245Z,0
2016-08-20T01:29:52.360Z,0
2016-08-20T01:30:16.469Z,0
2016-08-20T01:30:40.607Z,0
2016-08-20T01:31:04.702Z,0
2016-08-20T01:31:28.812Z,0
2016-08-20T01:31:52.933Z,0
2016-08-20T01:32:17.127Z,0
2016-08-20T01:32:41.227Z,0
2016-08-20T01:33:05.347Z,0
2016-08-20T01:33:29.473Z,0
2016-08-20T01:33:53.632Z,0
2016-08-20T01:34:17.730Z,0
2016-08-20T01:34:41.821Z,0
2016-08-20T01:35:05.953Z,0
2016-08-20T01:35:30.063Z,0
2016-08-20T01:35:54.227Z,0
2016-08-20T01:36:18.326Z,0
2016-08-20T01:36:42.438Z,0
2016-08-20T01:37:06.550Z,0
2016-08-20T01:37:30.669Z,0
2016-08-20T01:37:54.771Z,0
2016-08-20T01:38:18.876Z,0
2016-08-20T01:38:43.047Z,0
2016-08-20T01:39:07.151Z,0
2016-08-20T01:39:31.250Z,0
2016-08-20T01:39:55.407Z,0
2016-08-20T01:40:19.509Z,0
2016-08-20T01:40:43.627Z,0
2016-08-20T01:41:07.735Z,0
2016-08-20T01:41:31.847Z,0
2016-08-20T01:41:55.972Z,0
2016-08-20T01:42:20.104Z,0
2016-08-20T01:42:44.200Z,0
2016-08-20T01:43:08.299Z,0
2016-08-20T01:43:32.426Z,0
2016-08-20T01:43:56.531Z,0
2016-08-20T01:44:20.651Z,0
2016-08-20T01:44:44.779Z,0
2016-08-20T01:45:08.898Z,0
2016-08-20T01:45:33.004Z,0
2016-08-20T01:45:57.114Z,0
2016-08-20T01:46:21.225Z,0
2016-08-20T01:46:45.353Z,0
2016-08-20T01:47:09.481Z,0
2016-08-20T01:47:33.616Z,0
2016-08-20T01:47:57.693Z,0
2016-08-20T01:48:21.827Z,0
2016-08-20T01:48:45.985Z,0
2016-08-20T01:49:10.127Z,0
2016-08-20T01:49:34.242Z,0
2016-08-20T01:49:58.344Z,0
2016-08-20T01:50:22.441Z,0
2016-08-20T01:50:46.594Z,0
2016-08-20T01:51:10.715Z,0
2016-08-20T01:51:34.842Z,0
2016-08-20T01:51:58.990Z,0
2016-08-20T01:52:23.118Z,0
2016-08-20T01:52:47.222Z,0
2016-08-20T01:53:11.360Z,0
2016-08-20T01:53:35.475Z,0
2016-08-20T01:53:59.625Z,0
2016-08-20T01:54:23.775Z,0
2016-08-20T01:54:47.941Z,0
2016-08-20T01:55:12.125Z,0
2016-08-20T01:55:36.268Z,0
2016-08-20T01:56:00.388Z,0
2016-08-20T01:56:24.484Z,0
2016-08-20T01:56:48.611Z,0
2016-08-20T01:57:12.739Z,0
2016-08-20T01:57:36.867Z,0
2016-08-20T01:58:01.010Z,0
2016-08-20T01:58:25.116Z,0
2016-08-20T01:58:49.270Z,0
2016-08-20T01:59:13.389Z,0
2016-08-20T01:59:37.510Z,0
2016-08-20T02:00:01.637Z,0
2016-08-20T02:00:25.789Z,0
2016-08-20T02:00:49.942Z,0
2016-08-20T02:01:14.054Z,0
2016-08-20T02:01:38.166Z,0
2016-08-20T02:02:02.274Z,0
2016-08-20T02:02:26.401Z,0
2016-08-20T02:02:50.514Z,0
2016-08-20T02:03:14.616Z,0
2016-08-20T02:03:38.771Z,0
2016-08-20T02:04:02.897Z,0
2016-08-20T02:04:27.013Z,0
2016-08-20T02:04:51.130Z,0
2016-08-20T02:05:15.261Z,0
2016-08-20T02:05:39.371Z,0
2016-08-20T02:06:03.502Z,0
2016-08-20T02:06:27.603Z,0
2016-08-20T02:06:51.756Z,0
2016-08-20T02:07:15.918Z,0
2016-08-20T02:07:40.072Z,0
2016-08-20T02:08:04.179Z,0
2016-08-20T02:08:28.358Z,0
2016-08-20T02:08:52.469Z,0
2016-08-20T02:09:16.819Z,0
2016-08-20T02:09:40.949Z,0
2016-08-20T02:10:05.087Z,0
2016-08-20T02:10:29.225Z,0
2016-08-20T02:10:53.329Z,0
2016-08-20T02:11:17.456Z,0
2016-08-20T02:11:41.587Z,0
2016-08-20T02:12:05.756Z,0
2016-08-20T02:12:29.892Z,0
2016-08-20T02:12:53.993Z,0
2016-08-20T02:13:18.118Z,0
2016-08-20T02:13:42.248Z,0
2016-08-20T02:14:06.365Z,0
2016-08-20T02:14:30.482Z,0
2016-08-20T02:14:54.615Z,0
2016-08-20T02:15:18.815Z,0
2016-08-20T02:15:43.033Z,0
2016-08-20T02:16:07.148Z,0
2016-08-20T02:16:31.319Z,0
2016-08-20T02:16:55.445Z,0
2016-08-20T02:17:19.606Z,0
2016-08-20T02:17:43.737Z,0
2016-08-20T02:18:07.849Z,0
2016-08-20T02:18:31.977Z,0
2016-08-20T02:18:57.662Z,0
2016-08-20T02:19:21.779Z,0
2016-08-20T02:19:45.870Z,0
2016-08-20T02:20:09.996Z,0
2016-08-20T02:20:34.134Z,0
2016-08-20T02:20:58.281Z,0
2016-08-20T02:21:22.448Z,0
2016-08-20T02:21:46.560Z,0
2016-08-20T02:22:10.706Z,0
2016-08-20T02:22:34.799Z,0
2016-08-20T02:22:58.906Z,0
2016-08-20T02:23:23.038Z,0
2016-08-20T02:23:47.175Z,0
2016-08-20T02:24:11.281Z,0
2016-08-20T02:24:35.397Z,0
2016-08-20T02:24:59.592Z,0
2016-08-20T02:25:23.746Z,0
2016-08-20T02:25:47.870Z,0
2016-08-20T02:26:11.978Z,0
2016-08-20T02:26:36.113Z,0
2016-08-20T02:27:00.250Z,0
2016-08-20T02:27:24.364Z,0
2016-08-20T02:27:48.494Z,0
2016-08-20T02:28:12.613Z,0
2016-08-20T02:28:36.732Z,0
2016-08-20T02:29:00.898Z,0
2016-08-20T02:29:25.086Z,0
2016-08-20T02:29:49.280Z,0
2016-08-20T02:30:13.399Z,0
2016-08-20T02:30:37.539Z,0
2016-08-20T02:31:01.677Z,0
2016-08-20T02:31:25.798Z,0
2016-08-20T02:31:49.918Z,0
2016-08-20T02:32:14.071Z,0
2016-08-20T02:32:38.188Z,0
2016-08-20T02:33:02.287Z,0
2016-08-20T02:33:26.484Z,0
2016-08-20T02:33:50.686Z,0
2016-08-20T02:34:14.815Z,0
2016-08-20T02:34:38.922Z,0
2016-08-20T02:35:03.069Z,0
2016-08-20T02:35:27.209Z,0
2016-08-20T02:35:51.364Z,0
2016-08-20T02:36:15.486Z,0
2016-08-20T02:36:39.616Z,0
2016-08-20T02:37:03.777Z,0
2016-08-20T02:37:27.939Z,0
2016-08-20T02:37:52.026Z,0
2016-08-20T02:38:16.215Z,0
2016-08-20T02:38:40.346Z,0
2016-08-20T02:39:04.469Z,0
2016-08-20T02:39:28.665Z,0
2016-08-20T02:39:52.766Z,0
2016-08-20T02:40:16.889Z,0
2016-08-20T02:40:41.013Z,0
2016-08-20T02:41:05.156Z,0
2016-08-20T02:41:29.315Z,0
2016-08-20T02:41:53.404Z,0
2016-08-20T02:42:17.509Z,0
2016-08-20T02:42:41.608Z,0
2016-08-20T02:43:05.721Z,0
2016-08-20T02:43:29.845Z,0
2016-08-20T02:43:53.991Z,0
2016-08-20T02:44:18.110Z,0
2016-08-20T02:44:42.205Z,0
2016-08-20T02:45:06.313Z,0
2016-08-20T02:45:30.435Z,0
2016-08-20T02:45:54.562Z,0
2016-08-20T02:46:18.668Z,0
2016-08-20T02:46:42.792Z,0
2016-08-20T02:47:06.911Z,0
2016-08-20T02:47:31.061Z,0
2016-08-20T02:47:55.262Z,0
2016-08-20T02:48:19.408Z,0
2016-08-20T02:48:43.581Z,0
2016-08-20T02:49:07.746Z,0
2016-08-20T02:49:31.958Z,0
2016-08-20T02:49:56.077Z,0
2016-08-20T02:50:20.182Z,0
2016-08-20T02:50:44.297Z,0
2016-08-20T02:51:08.393Z,0
2016-08-20T02:51:32.511Z,0
2016-08-20T02:51:56.625Z,0
2016-08-20T02:52:20.771Z,0
2016-08-20T02:52:44.874Z,0
2016-08-20T02:53:09.001Z,0
2016-08-20T02:53:33.118Z,0
2016-08-20T02:53:57.253Z,0
2016-08-20T02:54:21.387Z,0
2016-08-20T02:54:45.495Z,0
2016-08-20T02:55:09.616Z,0
2016-08-20T02:55:33.711Z,0
2016-08-20T02:55:57.846Z,0
2016-08-20T02:56:21.945Z,0
2016-08-20T02:56:46.075Z,0
2016-08-20T02:57:10.175Z,0
2016-08-20T02:57:34.291Z,0
2016-08-20T02:57:58.446Z,0
2016-08-20T02:58:22.609Z,0
2016-08-20T02:58:46.728Z,0
2016-08-20T02:59:10.856Z,0
2016-08-20T02:59:34.948Z,0
2016-08-20T02:59:59.047Z,0
2016-08-20T03:00:23.191Z,0
2016-08-20T03:00:47.332Z,0
2016-08-20T03:01:11.462Z,0
2016-08-20T03:01:35.594Z,0
2016-08-20T03:01:59.737Z,0
2016-08-20T03:02:23.826Z,0
2016-08-20T03:02:48.031Z,0
2016-08-20T03:03:12.132Z,0
2016-08-20T03:03:36.245Z,0
2016-08-20T03:04:00.361Z,0
2016-08-20T03:04:24.524Z,0
2016-08-20T03:04:48.636Z,0
2016-08-20T03:05:12.752Z,0
2016-08-20T03:05:37.744Z,0
2016-08-20T03:06:01.875Z,0
2016-08-20T03:06:26.007Z,0
2016-08-20T03:06:50.128Z,0
2016-08-20T03:07:14.245Z,0
2016-08-20T03:07:38.366Z,0
2016-08-20T03:08:02.448Z,0
2016-08-20T03:08:26.563Z,0
2016-08-20T03:08:50.687Z,0
2016-08-20T03:09:14.796Z,0
2016-08-20T03:09:38.873Z,0
2016-08-20T03:10:02.995Z,0
2016-08-20T03:10:27.119Z,0
2016-08-20T03:10:51.273Z,0
2016-08-20T03:11:15.358Z,0
2016-08-20T03:11:39.497Z,0
2016-08-20T03:12:03.609Z,0
2016-08-20T03:12:27.726Z,0
2016-08-20T03:12:51.820Z,0
2016-08-20T03:13:15.940Z,0
2016-08-20T03:13:40.087Z,0
2016-08-20T03:14:04.215Z,0
2016-08-20T03:14:28.327Z,0
2016-08-20T03:14:52.453Z,0
2016-08-20T03:15:16.588Z,0
2016-08-20T03:15:40.710Z,0
2016-08-20T03:16:04.835Z,0
2016-08-20T03:16:28.937Z,0
2016-08-20T03:16:53.068Z,0
2016-08-20T03:17:17.193Z,0
2016-08-20T03:17:41.300Z,0
2016-08-20T03:18:05.463Z,0
2016-08-20T03:18:29.634Z,0
2016-08-20T03:18:53.734Z,0
2016-08-20T03:19:17.843Z,0
2016-08-20T03:19:41.968Z,0
2016-08-20T03:20:06.127Z,0
2016-08-20T03:20:30.258Z,0
2016-08-20T03:20:54.393Z,0
2016-08-20T03:21:18.491Z,0
2016-08-20T03:21:42.625Z,0
2016-08-20T03:22:06.756Z,4
2016-08-20T03:22:30.874Z,4
2016-08-20T03:22:55.026Z,4
2016-08-20T03:23:19.139Z,4
2016-08-20T03:23:43.246Z,4
2016-08-20T03:24:07.370Z,4
2016-08-20T03:24:31.516Z,0
2016-08-20T03:24:55.605Z,0
2016-08-20T03:25:19.795Z,0
2016-08-20T03:25:43.905Z,0
2016-08-20T03:26:08.048Z,0
2016-08-20T03:26:32.183Z,0
2016-08-20T03:26:56.287Z,0
2016-08-20T03:27:20.368Z,4
2016-08-20T03:27:44.471Z,4
2016-08-20T03:28:08.606Z,4
2016-08-20T03:28:32.714Z,4
2016-08-20T03:28:56.837Z,4
2016-08-20T03:29:20.935Z,0
2016-08-20T03:29:45.076Z,0
2016-08-20T03:30:09.179Z,4
2016-08-20T03:30:33.288Z,4
2016-08-20T03:30:57.444Z,4
2016-08-20T03:31:21.540Z,4
2016-08-20T03:31:45.649Z,4
2016-08-20T03:32:09.818Z,4
2016-08-20T03:32:33.934Z,4
2016-08-20T03:32:58.034Z,4
2016-08-20T03:33:22.157Z,4
2016-08-20T03:33:46.311Z,4
2016-08-20T03:34:10.459Z,4
2016-08-20T03:34:34.546Z,4
2016-08-20T03:34:58.752Z,8
2016-08-20T03:35:22.912Z,8
2016-08-20T03:35:47.024Z,4
2016-08-20T03:36:11.133Z,8
2016-08-20T03:36:35.300Z,8
2016-08-20T03:36:59.439Z,4
2016-08-20T03:37:23.554Z,8
2016-08-20T03:37:47.649Z,8
2016-08-20T03:38:11.758Z,8
2016-08-20T03:38:35.891Z,8
2016-08-20T03:38:59.987Z,8
2016-08-20T03:39:24.143Z,12
2016-08-20T03:39:48.245Z,12
2016-08-20T03:40:12.367Z,12
2016-08-20T03:40:36.506Z,12
2016-08-20T03:41:00.607Z,16
2016-08-20T03:41:24.717Z,16
2016-08-20T03:41:48.817Z,16
2016-08-20T03:42:12.926Z,16
2016-08-20T03:42:37.059Z,16
2016-08-20T03:43:01.168Z,20
2016-08-20T03:43:25.294Z,20
2016-08-20T03:43:49.429Z,24
2016-08-20T03:44:13.542Z,24
2016-08-20T03:44:37.668Z,24
2016-08-20T03:45:01.798Z,24
2016-08-20T03:45:25.934Z,28
2016-08-20T03:45:50.058Z,28
2016-08-20T03:46:14.172Z,32
2016-08-20T03:46:38.295Z,32
2016-08-20T03:47:02.417Z,36
2016-08-20T03:47:26.564Z,40
2016-08-20T03:47:50.695Z,40
2016-08-20T03:48:14.816Z,40
2016-08-20T03:48:38.937Z,44
2016-08-20T03:49:03.050Z,48
2016-08-20T03:49:27.155Z,52
2016-08-20T03:49:51.338Z,52
2016-08-20T03:50:15.481Z,52
2016-08-20T03:50:39.589Z,56
2016-08-20T03:51:03.695Z,60
2016-08-20T03:51:27.835Z,56
2016-08-20T03:51:51.976Z,60
2016-08-20T03:52:16.096Z,64
2016-08-20T03:52:40.168Z,64
2016-08-20T03:53:04.291Z,68
2016-08-20T03:53:28.457Z,72
2016-08-20T03:53:52.590Z,72
2016-08-20T03:54:16.717Z,72
2016-08-20T03:54:40.810Z,80
2016-08-20T03:55:04.971Z,80
2016-08-20T03:55:29.153Z,84
2016-08-20T03:55:53.275Z,88
2016-08-20T03:56:17.419Z,92
2016-08-20T03:56:41.535Z,96
2016-08-20T03:57:05.677Z,100
2016-08-20T03:57:29.793Z,100
2016-08-20T03:57:53.956Z,104
2016-08-20T03:58:18.068Z,108
2016-08-20T03:58:42.230Z,108
2016-08-20T03:59:06.371Z,112
2016-08-20T03:59:30.476Z,116
2016-08-20T03:59:54.625Z,116
2016-08-20T04:00:18.770Z,116
2016-08-20T04:00:43.000Z,116
2016-08-20T04:01:07.111Z,116
2016-08-20T04:01:31.232Z,120
2016-08-20T04:01:55.369Z,120
2016-08-20T04:02:19.500Z,124
2016-08-20T04:02:43.627Z,128
2016-08-20T04:03:07.711Z,136
2016-08-20T04:03:31.817Z,140
2016-08-20T04:03:55.977Z,144
2016-08-20T04:04:20.094Z,148
2016-08-20T04:04:44.223Z,152
2016-08-20T04:05:08.332Z,156
2016-08-20T04:05:32.461Z,156
2016-08-20T04:05:56.593Z,160
2016-08-20T04:06:20.735Z,160
2016-08-20T04:06:44.887Z,160
2016-08-20T04:07:09.025Z,160
2016-08-20T04:07:33.136Z,160
2016-08-20T04:07:57.241Z,164
2016-08-20T04:08:21.394Z,164
2016-08-20T04:08:45.509Z,168
2016-08-20T04:09:09.607Z,168
2016-08-20T04:09:33.735Z,172
2016-08-20T04:09:57.904Z,172
2016-08-20T04:10:22.026Z,172
2016-08-20T04:10:46.151Z,172
2016-08-20T04:11:10.295Z,168
2016-08-20T04:11:34.414Z,168
2016-08-20T04:11:58.539Z,164
2016-08-20T04:12:22.643Z,160
2016-08-20T04:12:46.761Z,156
2016-08-20T04:13:10.887Z,152
2016-08-20T04:13:34.984Z,152
2016-08-20T04:13:59.098Z,148
2016-08-20T04:14:23.237Z,144
2016-08-20T04:14:47.370Z,144
2016-08-20T04:15:11.489Z,144
2016-08-20T04:15:35.599Z,144
2016-08-20T04:15:59.724Z,144
2016-08-20T04:16:23.831Z,144
2016-08-20T04:16:47.938Z,144
2016-08-20T04:17:12.069Z,148
2016-08-20T04:17:36.223Z,148
2016-08-20T04:18:00.375Z,148
2016-08-20T04:18:24.458Z,148
2016-08-20T04:18:48.675Z,148
2016-08-20T04:19:12.790Z,152
2016-08-20T04:19:36.998Z,152
2016-08-20T04:20:01.159Z,156
2016-08-20T04:20:25.349Z,160
2016-08-20T04:20:49.492Z,164
2016-08-20T04:21:13.667Z,168
2016-08-20T04:21:37.818Z,168
2016-08-20T04:22:01.983Z,172
2016-08-20T04:22:26.113Z,172
2016-08-20T04:22:50.250Z,180
2016-08-20T04:23:14.338Z,184
2016-08-20T04:23:38.477Z,188
2016-08-20T04:24:02.605Z,196
2016-08-20T04:24:26.717Z,200
2016-08-20T04:24:51.146Z,212
2016-08-20T04:25:18.333Z,216
2016-08-20T04:27:04.842Z,236
2016-08-20T04:27:29.106Z,240
2016-08-20T04:27:53.346Z,244
2016-08-20T04:28:18.550Z,252
2016-08-20T04:28:42.955Z,256
2016-08-20T04:29:11.883Z,268
2016-08-20T04:29:49.111Z,280
2016-08-20T04:30:14.832Z,292
2016-08-20T04:30:39.004Z,300
2016-08-20T04:31:04.542Z,312
2016-08-20T04:31:30.863Z,324
2016-08-20T04:32:10.272Z,344
2016-08-20T04:32:36.009Z,360
2016-08-20T04:33:01.933Z,376
2016-08-20T04:33:36.440Z,388
2016-08-20T04:34:03.043Z,408
2016-08-20T04:34:30.061Z,424
2016-08-20T04:34:55.975Z,436
2016-08-20T04:35:22.873Z,448
2016-08-20T04:35:48.474Z,460
2016-08-20T04:36:22.515Z,480
2016-08-20T04:36:47.429Z,496
2016-08-20T04:37:12.940Z,508
2016-08-20T04:37:37.407Z,516
2016-08-20T04:38:02.146Z,528
2016-08-20T04:38:26.448Z,540
2016-08-20T04:38:50.573Z,544
2016-08-20T04:39:14.681Z,548
2016-08-20T04:39:40.180Z,552
2016-08-20T04:40:07.562Z,556
2016-08-20T04:40:33.902Z,564
2016-08-20T04:40:58.575Z,564
2016-08-20T04:41:24.729Z,572
2016-08-20T04:41:51.152Z,580
2016-08-20T04:42:19.207Z,588
2016-08-20T04:42:44.977Z,600
2016-08-20T04:43:11.126Z,616
2016-08-20T04:43:36.686Z,628
2016-08-20T04:44:04.412Z,644
2016-08-20T04:44:32.570Z,652
2016-08-20T04:45:00.957Z,668
2016-08-20T04:45:27.008Z,680
2016-08-20T04:45:52.438Z,688
2016-08-20T04:46:18.875Z,704
2016-08-20T04:46:44.795Z,720
2016-08-20T04:47:13.110Z,736
2016-08-20T04:47:42.453Z,760
2016-08-20T04:48:10.108Z,784
2016-08-20T04:48:35.126Z,808
2016-08-20T04:49:02.225Z,844
2016-08-20T04:49:29.796Z,884
2016-08-20T04:49:55.238Z,924
2016-08-20T04:50:21.439Z,976
2016-08-20T04:50:48.182Z,1020
2016-08-20T04:51:13.296Z,1052
2016-08-20T04:51:38.692Z,1088
2016-08-20T04:52:02.789Z,1128
2016-08-20T04:52:26.908Z,1160
2016-08-20T04:52:51.023Z,1188
2016-08-20T04:53:15.157Z,1212
2016-08-20T04:53:39.288Z,1232
2016-08-20T04:54:03.411Z,1240
2016-08-20T04:54:27.514Z,1252
2016-08-20T04:54:51.640Z,1268
2016-08-20T04:55:15.752Z,1276
2016-08-20T04:55:39.903Z,1288
2016-08-20T04:56:04.041Z,1288
2016-08-20T04:56:28.221Z,1288
2016-08-20T04:56:52.332Z,1300
2016-08-20T04:57:16.480Z,1316
2016-08-20T04:57:40.640Z,1320
2016-08-20T04:58:04.785Z,1352
2016-08-20T04:58:28.916Z,1388
2016-08-20T04:58:53.074Z,1424
2016-08-20T04:59:17.216Z,1468
2016-08-20T04:59:41.350Z,1524
2016-08-20T05:00:05.463Z,1608
2016-08-20T05:00:29.610Z,1680
2016-08-20T05:00:53.817Z,1752
2016-08-20T05:01:17.934Z,1836
2016-08-20T05:01:42.433Z,1904
2016-08-20T05:02:06.585Z,1976
2016-08-20T05:02:30.747Z,2036
2016-08-20T05:02:54.869Z,2104
2016-08-20T05:03:19.013Z,2160
2016-08-20T05:03:43.142Z,2212
2016-08-20T05:04:07.283Z,2276
2016-08-20T05:04:31.537Z,2344
2016-08-20T05:04:55.704Z,2416
2016-08-20T05:05:19.839Z,2484
2016-08-20T05:05:43.979Z,2548
2016-08-20T05:06:08.157Z,2612
2016-08-20T05:06:32.305Z,2668
2016-08-20T05:06:56.431Z,2720
2016-08-20T05:07:20.576Z,2808
2016-08-20T05:07:44.732Z,2876
2016-08-20T05:08:08.850Z,2952
2016-08-20T05:08:32.982Z,3044
2016-08-20T05:08:57.238Z,3144
2016-08-20T05:09:21.351Z,3232
2016-08-20T05:09:45.523Z,3324
2016-08-20T05:10:09.691Z,3428
2016-08-20T05:10:33.854Z,3532
2016-08-20T05:10:57.977Z,3636
2016-08-20T05:11:22.086Z,3744
2016-08-20T05:11:46.195Z,3860
2016-08-20T05:12:10.355Z,3984
2016-08-20T05:12:34.452Z,4100
2016-08-20T05:12:58.591Z,4232
2016-08-20T05:13:22.735Z,4372
2016-08-20T05:13:46.877Z,4504
2016-08-20T05:14:11.003Z,4624
2016-08-20T05:14:35.129Z,4736
2016-08-20T05:14:59.238Z,4840
2016-08-20T05:15:23.396Z,4936
2016-08-20T05:15:47.563Z,5020
2016-08-20T05:16:11.701Z,5100
2016-08-20T05:16:35.834Z,5176
2016-08-20T05:16:59.976Z,5240
2016-08-20T05:17:24.090Z,5300
2016-08-20T05:17:48.222Z,5352
2016-08-20T05:18:12.366Z,5400
2016-08-20T05:18:37.419Z,5436
2016-08-20T05:19:02.189Z,5464
2016-08-20T05:19:26.373Z,5492
2016-08-20T05:19:50.507Z,5516
2016-08-20T05:20:14.761Z,5536
2016-08-20T05:20:38.945Z,5560
2016-08-20T05:21:03.110Z,5576
2016-08-20T05:21:27.271Z,5588
2016-08-20T05:21:51.404Z,5600
2016-08-20T05:22:15.523Z,5608
2016-08-20T05:22:39.756Z,5616
2016-08-20T05:23:03.910Z,5620
2016-08-20T05:23:28.081Z,5620
2016-08-20T05:23:52.198Z,5616
2016-08-20T05:24:16.320Z,5608
2016-08-20T05:24:40.473Z,5592
2016-08-20T05:25:04.772Z,5580
2016-08-20T05:25:28.875Z,5564
2016-08-20T05:25:52.993Z,5544
2016-08-20T05:26:17.105Z,5524
2016-08-20T05:26:41.251Z,5504
2016-08-20T05:27:05.402Z,5484
2016-08-20T05:27:29.560Z,5464
2016-08-20T05:27:53.715Z,5440
2016-08-20T05:28:17.884Z,5416
2016-08-20T05:28:42.006Z,5400
2016-08-20T05:29:06.131Z,5376
2016-08-20T05:29:30.227Z,5356
2016-08-20T05:29:54.383Z,5332
2016-08-20T05:30:18.494Z,5304
2016-08-20T05:30:42.609Z,5284
2016-08-20T05:31:06.766Z,5260
2016-08-20T05:31:30.927Z,5236
2016-08-20T05:31:55.071Z,5208
2016-08-20T05:32:19.223Z,5180
2016-08-20T05:32:43.352Z,5148
2016-08-20T05:33:07.692Z,5108
2016-08-20T05:33:31.863Z,5064
2016-08-20T05:33:55.980Z,5008
2016-08-20T05:34:20.111Z,4952
2016-08-20T05:34:45.519Z,4888
2016-08-20T05:35:09.635Z,4828
2016-08-20T05:35:33.782Z,4756
2016-08-20T05:35:57.919Z,4692
2016-08-20T05:36:22.034Z,4636
2016-08-20T05:36:46.170Z,4576
2016-08-20T05:37:10.317Z,4524
2016-08-20T05:37:34.485Z,4476
2016-08-20T05:37:58.594Z,4440
2016-08-20T05:38:24.588Z,4404
2016-08-20T05:38:48.811Z,4372
2016-08-20T05:39:12.940Z,4348
2016-08-20T05:39:37.050Z,4324
2016-08-20T05:40:01.169Z,4308
2016-08-20T05:40:25.333Z,4288
2016-08-20T05:40:49.457Z,4276
2016-08-20T05:41:13.630Z,4268
2016-08-20T05:41:37.753Z,4260
2016-08-20T05:42:01.863Z,4260
2016-08-20T05:42:25.971Z,4260
2016-08-20T05:42:50.098Z,4252
2016-08-20T05:43:14.270Z,4252
2016-08-20T05:43:38.385Z,4252
2016-08-20T05:44:02.524Z,4252
2016-08-20T05:44:26.612Z,4252
2016-08-20T05:44:50.753Z,4256
2016-08-20T05:45:14.884Z,4264
2016-08-20T05:45:39.160Z,4276
2016-08-20T05:46:03.281Z,4284
2016-08-20T05:46:27.431Z,4300
2016-08-20T05:46:51.591Z,4312
2016-08-20T05:47:15.856Z,4332
2016-08-20T05:47:39.994Z,4352
2016-08-20T05:48:04.141Z,4380
2016-08-20T05:48:28.439Z,4404
2016-08-20T05:48:52.554Z,4436
2016-08-20T05:49:16.710Z,4472
2016-08-20T05:49:40.861Z,4508
2016-08-20T05:50:05.085Z,4544